createdAt,value
2022-12-16T00:01:19.828Z,94050.34
2022-12-16T00:03:51.934Z,94045.78
2022-12-16T00:06:20.659Z,94045.59
2022-12-16T00:08:48.542Z,94044.78
2022-12-16T00:11:16.232Z,94050.00
2022-12-16T00:13:44.122Z,94062.34
2022-12-16T00:16:15.570Z,94065.59
2022-12-16T00:18:43.563Z,94057.78
2022-12-16T00:21:11.931Z,94056.81
2022-12-16T00:23:41.571Z,94056.47
2022-12-16T00:26:09.934Z,94059.72
2022-12-16T00:28:37.616Z,94056.47
2022-12-16T00:31:06.578Z,94059.06
2022-12-16T00:33:36.135Z,94061.66
2022-12-16T00:36:04.498Z,94063.31
2022-12-16T00:38:32.273Z,94070.13
2022-12-16T00:41:00.298Z,94066.84
2022-12-16T00:43:28.011Z,94069.44
2022-12-16T00:45:56.049Z,94066.78
2022-12-16T00:48:25.426Z,94063.19
2022-12-16T00:50:55.737Z,94071.00
2022-12-16T00:53:26.041Z,94063.41
2022-12-16T00:56:01.908Z,94059.38
2022-12-16T00:58:30.028Z,94064.94
2022-12-16T01:00:57.752Z,94074.03
2022-12-16T01:03:26.194Z,94082.16
2022-12-16T01:05:55.666Z,94077.22
2022-12-16T01:08:24.327Z,94086.53
2022-12-16T01:10:53.198Z,94085.25
2022-12-16T01:13:25.612Z,94094.19
2022-12-16T01:15:54.080Z,94100.75
2022-12-16T01:18:22.440Z,94110.78
2022-12-16T01:20:50.234Z,94098.94
2022-12-16T01:23:20.300Z,94099.09
2022-12-16T01:25:52.167Z,94112.09
2022-12-16T01:28:20.219Z,94099.09
2022-12-16T01:30:47.860Z,94095.03
2022-12-16T01:33:15.860Z,94099.78
2022-12-16T01:35:55.440Z,94096.19
2022-12-16T01:38:25.680Z,94091.16
2022-12-16T01:40:55.095Z,94096.53
2022-12-16T01:43:27.019Z,94092.97
2022-12-16T01:46:00.216Z,94092.97
2022-12-16T01:48:37.020Z,94080.94
2022-12-16T01:51:09.266Z,94082.06
2022-12-16T01:53:40.606Z,94093.63
2022-12-16T01:56:08.729Z,94099.63
2022-12-16T01:58:39.569Z,94100.78
2022-12-16T02:01:07.743Z,94104.69
2022-12-16T02:03:37.599Z,94117.72
2022-12-16T02:06:07.672Z,94121.44
2022-12-16T02:08:37.888Z,94122.59
2022-12-16T02:11:15.342Z,94131.38
2022-12-16T02:13:59.573Z,94132.19
2022-12-16T02:16:33.493Z,94126.19
2022-12-16T02:19:05.764Z,94126.19
2022-12-16T02:21:46.244Z,94126.97
2022-12-16T02:24:42.222Z,94132.19
2022-12-16T02:27:38.785Z,94133.31
2022-12-16T02:30:23.231Z,94136.88
2022-12-16T02:33:03.656Z,94138.84
2022-12-16T02:35:36.920Z,94142.25
2022-12-16T02:38:15.793Z,94143.41
2022-12-16T02:40:46.868Z,94141.47
2022-12-16T02:43:23.890Z,94144.69
2022-12-16T02:45:51.925Z,94149.91
2022-12-16T02:48:21.818Z,94149.25
2022-12-16T02:50:52.026Z,94152.34
2022-12-16T02:53:21.551Z,94152.16
2022-12-16T02:56:00.898Z,94161.25
2022-12-16T02:58:36.470Z,94151.38
2022-12-16T03:01:12.998Z,94162.91
2022-12-16T03:03:47.615Z,94165.50
2022-12-16T03:06:18.986Z,94169.06
2022-12-16T03:08:51.896Z,94167.16
2022-12-16T03:11:19.863Z,94162.91
2022-12-16T03:13:51.439Z,94168.25
2022-12-16T03:16:23.807Z,94169.06
2022-12-16T03:18:57.780Z,94166.34
2022-12-16T03:21:30.162Z,94168.13
2022-12-16T03:24:01.533Z,94176.56
2022-12-16T03:26:35.361Z,94173.34
2022-12-16T03:29:09.346Z,94171.03
2022-12-16T03:31:41.477Z,94173.97
2022-12-16T03:34:18.119Z,94180.50
2022-12-16T03:36:51.776Z,94189.25
2022-12-16T03:39:23.116Z,94187.63
2022-12-16T03:41:54.370Z,94191.84
2022-12-16T03:44:25.532Z,94196.03
2022-12-16T03:46:53.768Z,94186.47
2022-12-16T03:49:24.548Z,94191.81
2022-12-16T03:51:53.540Z,94194.25
2022-12-16T03:54:21.301Z,94199.28
2022-12-16T03:56:48.979Z,94198.28
2022-12-16T03:59:16.633Z,94200.56
2022-12-16T04:01:44.702Z,94199.28
2022-12-16T04:04:12.909Z,94208.03
2022-12-16T04:06:41.915Z,94219.06
2022-12-16T04:09:09.695Z,94224.25
2022-12-16T04:11:55.271Z,94230.78
2022-12-16T04:14:41.626Z,94223.31
2022-12-16T04:17:31.704Z,94217.47
2022-12-16T04:20:16.987Z,94225.09
2022-12-16T04:23:03.396Z,94227.53
2022-12-16T04:25:34.081Z,94243.47
2022-12-16T04:28:01.804Z,94242.50
2022-12-16T04:30:34.649Z,94240.53
2022-12-16T04:33:23.334Z,94241.03
2022-12-16T04:36:09.752Z,94235.69
2022-12-16T04:38:56.337Z,94236.69
2022-12-16T04:41:41.367Z,94234.56
2022-12-16T04:44:27.156Z,94235.03
2022-12-16T04:47:12.493Z,94252.25
2022-12-16T04:49:57.860Z,94254.19
2022-12-16T04:52:43.041Z,94255.50
2022-12-16T04:55:30.523Z,94261.53
2022-12-16T04:58:17.774Z,94265.91
2022-12-16T05:01:06.301Z,94269.97
2022-12-16T05:03:52.472Z,94284.09
2022-12-16T05:06:38.193Z,94284.41
2022-12-16T05:09:24.629Z,94293.50
2022-12-16T05:12:12.095Z,94293.84
2022-12-16T05:14:57.687Z,94304.25
2022-12-16T05:17:42.669Z,94300.00
2022-12-16T05:20:29.241Z,94300.97
2022-12-16T05:23:14.995Z,94306.50
2022-12-16T05:26:01.196Z,94306.50
2022-12-16T05:28:48.501Z,94310.88
2022-12-16T05:31:34.226Z,94319.31
2022-12-16T05:34:19.707Z,94325.31
2022-12-16T05:37:04.848Z,94328.56
2022-12-16T05:39:50.180Z,94328.88
2022-12-16T05:42:35.728Z,94330.34
2022-12-16T05:45:23.454Z,94336.69
2022-12-16T05:48:08.903Z,94343.81
2022-12-16T05:50:55.755Z,94342.69
2022-12-16T05:53:41.573Z,94341.38
2022-12-16T05:56:38.448Z,94347.72
2022-12-16T05:59:23.568Z,94351.25
2022-12-16T06:02:10.516Z,94356.16
2022-12-16T06:04:56.075Z,94352.91
2022-12-16T06:07:41.540Z,94361.78
2022-12-16T06:10:27.524Z,94356.78
2022-12-16T06:13:12.741Z,94368.63
2022-12-16T06:16:01.431Z,94361.31
2022-12-16T06:18:50.458Z,94366.75
2022-12-16T06:21:37.299Z,94370.13
2022-12-16T06:24:28.528Z,94382.59
2022-12-16T06:27:13.896Z,94376.31
2022-12-16T06:29:59.118Z,94382.66
2022-12-16T06:32:44.718Z,94395.22
2022-12-16T06:35:31.207Z,94398.22
2022-12-16T06:38:17.024Z,94393.84
2022-12-16T06:41:01.993Z,94398.31
2022-12-16T06:43:48.339Z,94397.34
2022-12-16T06:46:33.960Z,94407.03
2022-12-16T06:49:19.352Z,94420.91
2022-12-16T06:52:06.677Z,94416.81
2022-12-16T06:54:51.027Z,94421.34
2022-12-16T06:57:36.779Z,94426.75
2022-12-16T07:00:23.145Z,94430.84
2022-12-16T07:03:08.574Z,94439.41
2022-12-16T07:05:54.224Z,94450.16
2022-12-16T07:08:41.251Z,94466.03
2022-12-16T07:11:26.929Z,94472.44
2022-12-16T07:14:12.290Z,94471.09
2022-12-16T07:16:57.778Z,94483.13
2022-12-16T07:19:42.985Z,94477.41
2022-12-16T07:22:28.939Z,94477.63
2022-12-16T07:25:15.670Z,94484.94
2022-12-16T07:28:04.348Z,94480.72
2022-12-16T07:30:49.553Z,94483.84
2022-12-16T07:33:35.223Z,94497.28
2022-12-16T07:36:21.008Z,94492.13
2022-12-16T07:39:06.098Z,94507.88
2022-12-16T07:41:52.691Z,94517.53
2022-12-16T07:44:38.615Z,94509.81
2022-12-16T07:47:24.086Z,94508.84
2022-12-16T07:50:09.492Z,94511.84
2022-12-16T07:52:55.375Z,94510.72
2022-12-16T07:55:40.789Z,94531.41
2022-12-16T07:58:28.263Z,94532.00
2022-12-16T08:01:10.089Z,94538.13
2022-12-16T08:03:56.290Z,94545.56
2022-12-16T08:06:41.528Z,94547.59
2022-12-16T08:09:32.381Z,94553.66
2022-12-16T08:12:17.958Z,94566.13
2022-12-16T08:15:04.895Z,94569.22
2022-12-16T08:17:59.052Z,94566.44
2022-12-16T08:20:49.460Z,94571.28
2022-12-16T08:23:35.416Z,94577.16
2022-12-16T08:26:21.395Z,94580.00
2022-12-16T08:29:27.253Z,94580.19
2022-12-16T08:32:13.973Z,94585.50
2022-12-16T08:34:59.399Z,94591.63
2022-12-16T08:37:44.930Z,94594.31
2022-12-16T08:40:37.328Z,94599.00
2022-12-16T08:43:23.121Z,94604.25
2022-12-16T08:46:11.963Z,94610.50
2022-12-16T08:48:59.255Z,94609.84
2022-12-16T08:51:44.936Z,94604.38
2022-12-16T08:54:30.261Z,94617.16
2022-12-16T08:57:15.570Z,94622.69
2022-12-16T09:00:00.771Z,94625.13
2022-12-16T09:02:46.543Z,94629.50
2022-12-16T09:05:33.695Z,94631.63
2022-12-16T09:08:20.121Z,94631.84
2022-12-16T09:11:05.403Z,94636.63
2022-12-16T09:13:50.556Z,94641.00
2022-12-16T09:16:37.195Z,94643.88
2022-12-16T09:19:22.598Z,94647.63
2022-12-16T09:22:09.144Z,94651.50
2022-12-16T09:24:54.455Z,94656.78
2022-12-16T09:27:41.205Z,94665.56
2022-12-16T09:30:28.127Z,94657.97
2022-12-16T09:33:13.626Z,94660.53
2022-12-16T09:36:00.224Z,94657.19
2022-12-16T09:38:46.651Z,94657.53
2022-12-16T09:41:47.016Z,94669.13
2022-12-16T09:44:45.557Z,94668.91
2022-12-16T09:47:42.627Z,94677.44
2022-12-16T09:50:37.532Z,94681.03
2022-12-16T09:53:25.167Z,94673.03
2022-12-16T09:56:12.263Z,94673.47
2022-12-16T09:59:05.220Z,94680.88
2022-12-16T10:01:54.697Z,94689.25
2022-12-16T10:04:51.954Z,94682.38
2022-12-16T10:07:40.372Z,94682.59
2022-12-16T10:10:39.101Z,94687.63
2022-12-16T10:13:36.104Z,94696.19
2022-12-16T10:16:31.771Z,94697.59
2022-12-16T10:19:26.411Z,94695.41
2022-12-16T10:22:19.726Z,94698.56
2022-12-16T10:25:29.421Z,94698.69
2022-12-16T10:28:24.681Z,94698.50
2022-12-16T10:31:12.043Z,94702.50
2022-12-16T10:34:09.057Z,94700.44
2022-12-16T10:36:56.097Z,94704.38
2022-12-16T10:39:59.444Z,94706.38
2022-12-16T10:42:48.758Z,94706.09
2022-12-16T10:45:39.945Z,94703.72
2022-12-16T10:48:27.601Z,94710.47
2022-12-16T10:51:13.209Z,94719.53
2022-12-16T10:53:58.614Z,94717.13
2022-12-16T10:57:06.530Z,94726.41
2022-12-16T10:59:54.487Z,94735.78
2022-12-16T11:02:43.085Z,94725.00
2022-12-16T11:05:49.216Z,94737.25
2022-12-16T11:08:44.171Z,94732.72
2022-12-16T11:11:40.075Z,94732.72
2022-12-16T11:14:38.387Z,94724.09
2022-12-16T11:17:32.385Z,94730.94
2022-12-16T11:20:34.754Z,94722.91
2022-12-16T11:23:32.398Z,94726.84
2022-12-16T11:26:35.831Z,94726.66
2022-12-16T11:29:25.963Z,94735.16
2022-12-16T11:32:16.902Z,94733.25
2022-12-16T11:35:08.232Z,94746.31
2022-12-16T11:37:56.897Z,94747.94
2022-12-16T11:40:44.738Z,94754.94
2022-12-16T11:43:33.777Z,94749.22
2022-12-16T11:46:22.835Z,94764.03
2022-12-16T11:49:13.428Z,94747.69
2022-12-16T11:52:28.037Z,94756.63
2022-12-16T11:55:15.555Z,94756.25
2022-12-16T11:58:09.062Z,94753.34
2022-12-16T12:01:07.719Z,94745.81
2022-12-16T12:04:01.712Z,94755.66
2022-12-16T12:06:58.116Z,94755.69
2022-12-16T12:09:46.083Z,94754.41
2022-12-16T12:12:41.767Z,94758.38
2022-12-16T12:15:41.978Z,94759.84
2022-12-16T12:18:35.933Z,94771.75
2022-12-16T12:21:27.650Z,94772.41
2022-12-16T12:24:22.091Z,94775.44
2022-12-16T12:27:15.922Z,94781.81
2022-12-16T12:30:16.593Z,94776.25
2022-12-16T12:33:14.241Z,94775.78
2022-12-16T12:36:10.978Z,94776.63
2022-12-16T12:39:05.855Z,94767.84
2022-12-16T12:42:01.512Z,94778.09
2022-12-16T12:45:00.591Z,94778.91
2022-12-16T12:47:49.159Z,94796.22
2022-12-16T12:50:46.789Z,94803.38
2022-12-16T12:53:45.024Z,94796.22
2022-12-16T12:56:41.729Z,94799.78
2022-12-16T12:59:33.827Z,94804.34
2022-12-16T13:02:23.577Z,94800.13
2022-12-16T13:05:10.200Z,94800.38
2022-12-16T13:07:57.231Z,94802.03
2022-12-16T13:10:52.232Z,94807.91
2022-12-16T13:13:49.100Z,94817.00
2022-12-16T13:17:07.911Z,94823.81
2022-12-16T13:19:59.926Z,94829.72
2022-12-16T13:22:48.214Z,94835.75
2022-12-16T13:25:56.692Z,94837.34
2022-12-16T13:28:49.421Z,94829.38
2022-12-16T13:31:35.500Z,94842.38
2022-12-16T13:34:26.049Z,94849.31
2022-12-16T13:37:20.784Z,94849.94
2022-12-16T13:40:22.361Z,94853.00
2022-12-16T13:43:13.846Z,94856.41
2022-12-16T13:46:01.983Z,94859.31
2022-12-16T13:48:56.945Z,94867.56
2022-12-16T13:52:25.719Z,94868.09
2022-12-16T13:55:27.347Z,94875.13
2022-12-16T13:58:22.203Z,94889.94
2022-12-16T14:01:16.683Z,94897.59
2022-12-16T14:04:05.651Z,94905.63
2022-12-16T14:06:53.658Z,94904.97
2022-12-16T14:09:48.671Z,94909.69
2022-12-16T14:12:52.981Z,94910.81
2022-12-16T14:15:47.791Z,94923.94
2022-12-16T14:18:44.660Z,94925.19
2022-12-16T14:21:35.347Z,94933.75
2022-12-16T14:24:29.647Z,94930.47
2022-12-16T14:27:15.471Z,94933.50
2022-12-16T14:30:02.636Z,94936.78
2022-12-16T14:32:51.212Z,94945.25
2022-12-16T14:35:38.845Z,94951.25
2022-12-16T14:38:42.153Z,94946.88
2022-12-16T14:41:34.488Z,94956.13
2022-12-16T14:44:21.974Z,94952.63
2022-12-16T14:47:09.052Z,94966.50
2022-12-16T14:50:09.195Z,94963.50
2022-12-16T14:52:54.752Z,94965.84
2022-12-16T14:55:47.520Z,94976.91
2022-12-16T14:58:35.074Z,94984.41
2022-12-16T15:01:24.441Z,94983.59
2022-12-16T15:04:12.390Z,94985.91
2022-12-16T15:07:02.940Z,94992.19
2022-12-16T15:09:52.974Z,95006.66
2022-12-16T15:12:44.510Z,95007.06
2022-12-16T15:15:34.931Z,95016.19
2022-12-16T15:18:21.682Z,95012.63
2022-12-16T15:21:10.711Z,95021.03
2022-12-16T15:24:00.596Z,95021.19
2022-12-16T15:26:48.854Z,95032.81
2022-12-16T15:29:47.358Z,95035.53
2022-12-16T15:32:48.034Z,95037.44
2022-12-16T15:35:43.877Z,95038.78
2022-12-16T15:38:31.043Z,95037.69
2022-12-16T15:41:17.968Z,95047.09
2022-12-16T15:44:16.810Z,95052.06
2022-12-16T15:47:06.907Z,95051.97
2022-12-16T15:49:57.975Z,95065.06
2022-12-16T15:52:54.676Z,95060.13
2022-12-16T15:55:45.814Z,95059.25
2022-12-16T15:58:37.906Z,95067.31
2022-12-16T16:01:25.193Z,95072.22
2022-12-16T16:04:13.332Z,95064.81
2022-12-16T16:07:15.245Z,95073.53
2022-12-16T16:10:01.184Z,95076.44
2022-12-16T16:12:46.642Z,95079.22
2022-12-16T16:15:34.193Z,95084.16
2022-12-16T16:18:21.634Z,95087.25
2022-12-16T16:21:08.193Z,95088.81
2022-12-16T16:23:54.272Z,95093.22
2022-12-16T16:26:50.246Z,95095.81
2022-12-16T16:29:47.216Z,95095.25
2022-12-16T16:32:34.658Z,95094.94
2022-12-16T16:35:20.180Z,95104.22
2022-12-16T16:38:06.093Z,95101.31
2022-12-16T16:40:54.251Z,95106.63
2022-12-16T16:43:40.037Z,95115.53
2022-12-16T16:46:46.322Z,95120.94
2022-12-16T16:49:36.031Z,95130.00
2022-12-16T16:52:21.450Z,95129.41
2022-12-16T16:55:07.339Z,95132.44
2022-12-16T16:57:56.243Z,95135.59
2022-12-16T17:00:42.032Z,95142.25
2022-12-16T17:03:27.969Z,95138.44
2022-12-16T17:06:15.556Z,95147.13
2022-12-16T17:09:00.873Z,95147.81
2022-12-16T17:11:47.675Z,95159.63
2022-12-16T17:14:35.566Z,95157.09
2022-12-16T17:17:21.773Z,95159.94
2022-12-16T17:20:07.947Z,95170.03
2022-12-16T17:22:54.607Z,95170.84
2022-12-16T17:25:40.610Z,95173.44
2022-12-16T17:28:26.424Z,95175.41
2022-12-16T17:31:11.929Z,95181.59
2022-12-16T17:33:57.494Z,95193.63
2022-12-16T17:36:42.840Z,95202.13
2022-12-16T17:39:30.128Z,95197.03
2022-12-16T17:42:16.033Z,95212.50
2022-12-16T17:45:01.137Z,95220.28
2022-12-16T17:47:47.472Z,95215.81
2022-12-16T17:50:32.903Z,95215.84
2022-12-16T17:53:18.607Z,95226.19
2022-12-16T17:56:05.178Z,95221.00
2022-12-16T17:58:54.107Z,95220.09
2022-12-16T18:01:40.343Z,95237.53
2022-12-16T18:04:26.200Z,95245.28
2022-12-16T18:07:11.676Z,95242.16
2022-12-16T18:09:57.196Z,95244.28
2022-12-16T18:12:44.925Z,95254.09
2022-12-16T18:15:30.033Z,95265.13
2022-12-16T18:18:15.861Z,95259.72
2022-12-16T18:21:01.343Z,95263.13
2022-12-16T18:23:48.056Z,95268.00
2022-12-16T18:26:33.745Z,95268.19
2022-12-16T18:29:20.180Z,95277.81
2022-12-16T18:32:06.521Z,95273.31
2022-12-16T18:34:52.383Z,95272.72
2022-12-16T18:37:42.081Z,95275.16
2022-12-16T18:40:28.915Z,95284.69
2022-12-16T18:43:17.216Z,95287.72
2022-12-16T18:46:10.360Z,95293.38
2022-12-16T18:49:04.831Z,95289.81
2022-12-16T18:51:50.622Z,95290.50
2022-12-16T18:54:36.365Z,95285.78
2022-12-16T18:57:21.855Z,95300.63
2022-12-16T19:00:07.836Z,95302.59
2022-12-16T19:02:55.525Z,95302.22
2022-12-16T19:05:41.635Z,95304.75
2022-12-16T19:08:27.497Z,95312.97
2022-12-16T19:11:15.806Z,95306.19
2022-12-16T19:14:02.076Z,95314.44
2022-12-16T19:16:48.066Z,95322.91
2022-12-16T19:19:34.767Z,95318.41
2022-12-16T19:22:20.985Z,95323.66
2022-12-16T19:25:06.268Z,95318.88
2022-12-16T19:27:52.731Z,95321.75
2022-12-16T19:30:50.220Z,95321.72
2022-12-16T19:33:35.692Z,95325.16
2022-12-16T19:36:22.686Z,95339.06
2022-12-16T19:39:08.805Z,95347.16
2022-12-16T19:41:56.212Z,95344.63
2022-12-16T19:44:41.918Z,95358.44
2022-12-16T19:47:27.537Z,95344.09
2022-12-16T19:50:12.922Z,95349.06
2022-12-16T19:53:00.141Z,95349.47
2022-12-16T19:55:45.508Z,95359.13
2022-12-16T19:58:32.082Z,95364.50
2022-12-16T20:01:17.462Z,95368.84
2022-12-16T20:04:03.309Z,95377.53
2022-12-16T20:06:49.440Z,95374.50
2022-12-16T20:09:36.308Z,95383.69
2022-12-16T20:12:21.907Z,95391.94
2022-12-16T20:15:07.051Z,95383.00
2022-12-16T20:17:52.467Z,95392.16
2022-12-16T20:20:41.644Z,95390.97
2022-12-16T20:23:27.514Z,95399.31
2022-12-16T20:26:15.689Z,95397.13
2022-12-16T20:29:02.359Z,95400.16
2022-12-16T20:31:48.135Z,95408.41
2022-12-16T20:34:33.741Z,95413.78
2022-12-16T20:37:18.965Z,95422.13
2022-12-16T20:40:04.708Z,95424.81
2022-12-16T20:42:51.412Z,95429.78
2022-12-16T20:45:38.983Z,95426.38
2022-12-16T20:48:24.451Z,95438.97
2022-12-16T20:51:13.628Z,95445.78
2022-12-16T20:53:59.744Z,95449.69
2022-12-16T20:56:45.076Z,95451.22
2022-12-16T20:59:32.105Z,95453.34
2022-12-16T21:02:27.928Z,95453.94
2022-12-16T21:05:17.367Z,95460.88
2022-12-16T21:08:02.944Z,95458.06
2022-12-16T21:10:49.556Z,95461.34
2022-12-16T21:13:36.483Z,95464.38
2022-12-16T21:16:25.305Z,95460.41
2022-12-16T21:19:11.472Z,95481.25
2022-12-16T21:21:56.808Z,95482.06
2022-12-16T21:24:43.050Z,95485.72
2022-12-16T21:27:28.692Z,95489.59
2022-12-16T21:30:14.158Z,95497.50
2022-12-16T21:33:00.979Z,95497.03
2022-12-16T21:35:47.014Z,95505.63
2022-12-16T21:38:32.760Z,95515.50
2022-12-16T21:41:17.984Z,95515.25
2022-12-16T21:44:03.273Z,95524.47
2022-12-16T21:46:48.802Z,95523.53
2022-12-16T21:49:35.923Z,95520.19
2022-12-16T21:52:20.964Z,95532.94
2022-12-16T21:55:06.859Z,95535.03
2022-12-16T21:57:53.332Z,95535.84
2022-12-16T22:00:40.702Z,95535.16
2022-12-16T22:03:26.357Z,95538.53
2022-12-16T22:06:17.428Z,95541.66
2022-12-16T22:09:03.030Z,95541.09
2022-12-16T22:11:48.538Z,95545.56
2022-12-16T22:14:34.600Z,95551.81
2022-12-16T22:17:19.922Z,95555.25
2022-12-16T22:20:05.648Z,95561.88
2022-12-16T22:22:52.511Z,95564.47
2022-12-16T22:25:38.011Z,95565.88
2022-12-16T22:28:24.959Z,95571.50
2022-12-16T22:31:16.150Z,95578.56
2022-12-16T22:34:01.433Z,95577.69
2022-12-16T22:36:47.082Z,95576.63
2022-12-16T22:39:33.600Z,95583.88
2022-12-16T22:42:18.898Z,95591.97
2022-12-16T22:45:04.120Z,95585.78
2022-12-16T22:47:49.703Z,95592.84
2022-12-16T22:50:35.546Z,95586.03
2022-12-16T22:53:21.220Z,95589.84
2022-12-16T22:56:10.862Z,95592.78
2022-12-16T22:58:55.244Z,95588.72
2022-12-16T23:01:41.891Z,95602.06
2022-12-16T23:04:27.566Z,95604.59
2022-12-16T23:07:13.761Z,95598.78
2022-12-16T23:09:59.514Z,95606.53
2022-12-16T23:12:46.199Z,95613.41
2022-12-16T23:15:32.435Z,95611.34
2022-12-16T23:18:17.784Z,95614.59
2022-12-16T23:21:05.440Z,95621.63
2022-12-16T23:23:50.612Z,95617.69
2022-12-16T23:26:37.332Z,95613.72
2022-12-16T23:29:39.180Z,95621.41
2022-12-16T23:32:24.347Z,95609.81
2022-12-16T23:35:09.809Z,95620.81
2022-12-16T23:37:55.003Z,95613.38
2022-12-16T23:40:42.237Z,95618.19
2022-12-16T23:43:27.454Z,95626.75
2022-12-16T23:46:14.575Z,95617.34
2022-12-16T23:48:59.954Z,95625.63
2022-12-16T23:51:45.199Z,95632.38
2022-12-16T23:54:30.267Z,95628.56
2022-12-16T23:57:15.575Z,95630.75
